Time;durP1;ratioP1;P1;durP2;ratioP2;P2;SDS_P1;SDS_P2;PMS_P1;PMS_P2;Temp;Humidity;BMP_temperature;BMP_pressure;BME280_temperature;BME280_humidity;BME280_pressure;Samples;Min_cycle;Max_cycle;Signal;HPM_P1;HPM_P2
2023/10/26 00:00:42;;;;;;;9.70;7.00;;;;;;;13.51;96.65;97718.14;107252;1257;67979;-37
2023/10/26 00:03:09;;;;;;;9.80;6.50;;;;;;;13.49;96.12;97717.85;107202;1257;71361;-37
2023/10/26 00:05:37;;;;;;;7.70;6.40;;;;;;;13.49;95.55;97715.98;107214;1257;61658;-37
2023/10/26 00:08:05;;;;;;;7.40;6.50;;;;;;;13.48;95.04;97716.08;107263;1257;59634;-37
2023/10/26 00:10:32;;;;;;;10.50;7.20;;;;;;;13.42;95.18;97721.79;107249;1263;73044;-37
2023/10/26 00:13:00;;;;;;;9.50;6.80;;;;;;;13.36;95.29;97720.91;107210;1257;67247;-37
2023/10/26 00:15:27;;;;;;;10.50;6.90;;;;;;;13.34;95.19;97719.55;107219;1257;72661;-37
2023/10/26 00:17:55;;;;;;;9.50;6.50;;;;;;;13.36;95.06;97716.41;107201;1257;61669;-36
2023/10/26 00:20:23;;;;;;;8.10;6.60;;;;;;;13.37;94.91;97708.67;107218;1257;60058;-37
2023/10/26 00:22:51;;;;;;;10.60;6.90;;;;;;;13.35;94.86;97711.59;107246;1255;73094;-37
2023/10/26 00:25:18;;;;;;;9.00;6.60;;;;;;;13.29;94.82;97714.19;107272;1256;66162;-37
2023/10/26 00:27:46;;;;;;;10.50;6.50;;;;;;;13.25;94.95;97714.50;107211;1257;71475;-37
2023/10/26 00:30:13;;;;;;;7.80;6.20;;;;;;;13.26;94.73;97711.84;107175;1257;61665;-37
2023/10/26 00:32:41;;;;;;;6.30;5.70;;;;;;;13.28;94.40;97710.55;107208;1262;59257;-37
2023/10/26 00:35:09;;;;;;;7.30;6.50;;;;;;;13.27;94.22;97702.40;107283;1255;71753;-37
2023/10/26 00:37:37;;;;;;;10.80;6.80;;;;;;;13.21;94.02;97702.36;107227;1255;67163;-37
2023/10/26 00:40:05;;;;;;;7.20;6.10;;;;;;;13.17;93.92;97700.02;107241;1257;71975;-37
2023/10/26 00:42:33;;;;;;;9.30;5.40;;;;;;;13.16;93.35;97698.50;107303;1256;61691;-37
2023/10/26 00:45:00;;;;;;;6.50;5.50;;;;;;;13.15;93.03;97697.73;107300;1257;60412;-37
2023/10/26 00:47:28;;;;;;;10.10;5.80;;;;;;;13.14;92.59;97695.50;107226;1256;73084;-37
2023/10/26 00:49:55;;;;;;;8.40;5.70;;;;;;;13.07;92.54;97694.05;107298;1256;67604;-37
2023/10/26 00:52:23;;;;;;;7.10;6.10;;;;;;;12.99;92.54;97695.52;107210;1257;71400;-37
2023/10/26 00:54:50;;;;;;;7.10;5.00;;;;;;;12.96;92.31;97699.91;107287;1257;61738;-37
2023/10/26 00:57:19;;;;;;;6.00;4.80;;;;;;;12.94;91.96;97703.97;107071;1257;60057;-37
2023/10/26 00:59:46;;;;;;;6.70;5.10;;;;;;;12.93;92.02;97710.83;107071;1257;72889;-37
2023/10/26 01:02:15;;;;;;;6.10;5.50;;;;;;;12.91;91.99;97712.97;107259;1257;67966;-37
2023/10/26 01:04:42;;;;;;;7.00;5.00;;;;;;;12.86;91.88;97713.30;107290;1257;71461;-37
2023/10/26 01:07:10;;;;;;;7.30;5.10;;;;;;;12.85;91.84;97714.78;107196;1257;61726;-37
2023/10/26 01:09:38;;;;;;;6.00;4.80;;;;;;;12.86;91.69;97712.83;107201;1257;59596;-37
2023/10/26 01:12:06;;;;;;;6.70;5.30;;;;;;;12.86;91.61;97713.14;107247;1257;72125;-36
2023/10/26 01:14:34;;;;;;;6.40;5.30;;;;;;;12.83;91.78;97713.11;107232;1257;67900;-37
2023/10/26 01:17:01;;;;;;;5.70;5.10;;;;;;;12.79;91.80;97716.43;107247;1257;72649;-37
2023/10/26 01:19:42;;;;;;;5.50;4.80;;;;;;;12.80;91.57;97719.83;107266;1257;61681;-37
2023/10/26 01:22:10;;;;;;;5.40;4.90;;;;;;;12.83;91.27;97723.83;107269;1257;60296;-37
2023/10/26 01:24:37;;;;;;;6.50;5.30;;;;;;;12.83;91.35;97721.48;107255;1256;73811;-37
2023/10/26 01:27:05;;;;;;;7.00;5.60;;;;;;;12.82;91.42;97725.64;107233;1260;67564;-37
2023/10/26 01:29:33;;;;;;;7.20;5.00;;;;;;;12.78;91.48;97728.58;107187;1257;72776;-37
2023/10/26 01:32:00;;;;;;;5.50;4.70;;;;;;;12.78;91.30;97733.30;107206;1257;60936;-37
2023/10/26 01:34:28;;;;;;;5.70;4.80;;;;;;;12.79;91.12;97726.60;107248;1256;60391;-37
2023/10/26 01:36:56;;;;;;;5.30;4.60;;;;;;;12.81;91.03;97724.64;107236;1257;74294;-37
2023/10/26 01:39:24;;;;;;;6.00;5.10;;;;;;;12.78;91.40;97731.29;107276;1258;66831;-37
2023/10/26 01:41:51;;;;;;;5.80;5.10;;;;;;;12.75;91.50;97733.51;107223;1257;72684;-37
2023/10/26 01:44:19;;;;;;;6.30;4.60;;;;;;;12.77;91.46;97737.05;107213;1257;60454;-36
2023/10/26 01:46:46;;;;;;;8.80;4.90;;;;;;;12.81;91.24;97738.94;107215;1257;60738;-37
2023/10/26 01:49:14;;;;;;;7.10;5.20;;;;;;;12.84;91.17;97734.21;107227;1257;73797;-37
2023/10/26 01:51:41;;;;;;;6.30;5.00;;;;;;;12.81;91.04;97731.48;107253;1257;67570;-37
2023/10/26 01:54:09;;;;;;;6.70;5.30;;;;;;;12.78;91.34;97732.69;107067;1261;72492;-37
2023/10/26 01:56:39;;;;;;;;;;;;;;;12.79;91.30;97734.69;107243;1258;61875;-36
2023/10/26 01:59:06;;;;;;;7.60;5.40;;;;;;;12.80;91.03;97735.52;107093;1262;60373;-36
2023/10/26 02:01:34;;;;;;;6.00;5.40;;;;;;;12.78;91.10;97734.17;107078;1255;73789;-37
2023/10/26 02:04:01;;;;;;;6.10;5.40;;;;;;;12.74;91.35;97730.73;107118;1257;67614;-37
2023/10/26 02:06:29;;;;;;;6.70;5.20;;;;;;;12.69;91.53;97735.09;107195;1256;72709;-36
2023/10/26 02:08:57;;;;;;;9.10;5.60;;;;;;;12.69;91.59;97732.36;107200;1261;61925;-37
2023/10/26 02:11:25;;;;;;;8.20;4.90;;;;;;;12.71;91.51;97727.36;107244;1257;60047;-37
2023/10/26 02:13:52;;;;;;;7.20;5.20;;;;;;;12.71;91.45;97723.55;107369;1257;71606;-37
2023/10/26 02:16:20;;;;;;;5.90;5.30;;;;;;;12.70;91.52;97721.70;107222;1262;67550;-37
2023/10/26 02:18:48;;;;;;;5.70;4.60;;;;;;;12.67;91.47;97721.36;107456;1254;71967;-36
2023/10/26 02:21:15;;;;;;;5.00;4.40;;;;;;;12.67;91.38;97718.18;107515;1254;61777;-37
2023/10/26 02:23:43;;;;;;;5.90;4.60;;;;;;;12.70;91.16;97721.92;107619;1253;60421;-37
2023/10/26 02:26:11;;;;;;;8.40;4.60;;;;;;;12.71;91.02;97725.11;107491;1254;73872;-37
2023/10/26 02:28:39;;;;;;;7.30;4.70;;;;;;;12.68;91.14;97730.67;107608;1253;66264;-36
2023/10/26 02:31:06;;;;;;;6.10;4.80;;;;;;;12.66;91.31;97736.06;107515;1253;72695;-37
2023/10/26 02:33:34;;;;;;;5.00;4.50;;;;;;;12.69;91.04;97731.64;107679;1253;60442;-37
2023/10/26 02:36:04;;;;;;;4.90;4.40;;;;;;;12.72;90.62;97737.30;107682;1253;60360;-36
2023/10/26 02:38:32;;;;;;;5.50;4.50;;;;;;;12.72;90.53;97735.05;107625;1253;72881;-37
2023/10/26 02:41:04;;;;;;;5.60;4.40;;;;;;;12.68;90.58;97732.77;107480;1254;67916;-37
2023/10/26 02:43:32;;;;;;;6.40;4.90;;;;;;;12.65;90.56;97730.86;107617;1252;72655;-37
2023/10/26 02:46:01;;;;;;;4.60;4.10;;;;;;;12.66;90.27;97732.73;107584;1253;61772;-37
2023/10/26 02:48:29;;;;;;;4.50;4.00;;;;;;;12.67;90.11;97735.74;107554;1258;60434;-37
2023/10/26 02:50:56;;;;;;;5.60;3.90;;;;;;;12.67;90.09;97735.89;107595;1254;73818;-37
2023/10/26 02:53:24;;;;;;;5.80;4.70;;;;;;;12.64;90.33;97737.79;107695;1254;66815;-37
2023/10/26 02:55:52;;;;;;;5.50;4.50;;;;;;;12.61;90.32;97739.78;107576;1257;71367;-36
2023/10/26 02:58:19;;;;;;;5.40;4.00;;;;;;;12.63;90.23;97740.91;107600;1253;60402;-37
2023/10/26 03:00:47;;;;;;;6.40;3.90;;;;;;;12.68;90.03;97747.98;107615;1252;60296;-37
2023/10/26 03:03:14;;;;;;;5.70;4.10;;;;;;;12.68;90.12;97742.79;107597;1254;72628;-37
2023/10/26 03:05:43;;;;;;;5.20;4.50;;;;;;;12.63;90.37;97746.66;107591;1254;67938;-37
2023/10/26 03:08:11;;;;;;;5.20;3.90;;;;;;;12.60;90.58;97748.88;107595;1257;72678;-37
2023/10/26 03:10:39;;;;;;;6.70;4.10;;;;;;;12.63;90.71;97750.55;107596;1253;61709;-37
2023/10/26 03:13:07;;;;;;;5.80;4.70;;;;;;;12.69;90.59;97752.02;107608;1257;60902;-37
2023/10/26 03:15:34;;;;;;;5.50;4.60;;;;;;;12.71;90.49;97750.20;107576;1257;73872;-37
2023/10/26 03:18:02;;;;;;;8.40;5.70;;;;;;;12.68;90.76;97747.36;107616;1253;66984;-35
2023/10/26 03:20:31;;;;;;;9.70;6.10;;;;;;;12.63;90.92;97746.20;107570;1254;72708;-36
2023/10/26 03:22:59;;;;;;;10.50;6.80;;;;;;;12.62;90.96;97743.90;107476;1259;61667;-36
2023/10/26 03:25:27;;;;;;;8.60;6.00;;;;;;;12.66;90.93;97749.66;107674;1256;61020;-36
2023/10/26 03:27:56;;;;;;;8.20;6.90;;;;;;;12.66;90.89;97753.08;107697;1253;72737;-36
2023/10/26 03:30:23;;;;;;;9.00;7.00;;;;;;;12.61;91.23;97754.39;107597;1254;67662;-36
2023/10/26 03:32:51;;;;;;;9.90;6.70;;;;;;;12.56;91.37;97757.48;107681;1253;72637;-36
2023/10/26 03:35:19;;;;;;;12.50;6.60;;;;;;;12.56;91.37;97752.84;107586;1257;61672;-36
2023/10/26 03:37:46;;;;;;;9.50;7.60;;;;;;;12.60;91.33;97758.67;107595;1254;60437;-35
2023/10/26 03:40:14;;;;;;;11.10;7.10;;;;;;;12.56;91.45;97763.08;107726;1253;73804;-36
2023/10/26 03:42:42;;;;;;;12.00;6.40;;;;;;;12.50;91.60;97763.55;107677;1256;67610;-36
2023/10/26 03:45:10;;;;;;;8.70;6.50;;;;;;;12.50;91.79;97766.83;107607;1254;71419;-36
2023/10/26 03:47:39;;;;;;;8.90;6.30;;;;;;;12.52;91.62;97774.39;107643;1254;60366;-37
2023/10/26 03:50:07;;;;;;;11.30;7.30;;;;;;;12.53;91.51;97778.44;107729;1253;60376;-36
2023/10/26 03:52:35;;;;;;;9.90;7.40;;;;;;;12.48;91.77;97777.64;107581;1252;73825;-36
2023/10/26 03:55:04;;;;;;;11.10;7.80;;;;;;;12.44;92.05;97779.56;107492;1253;67913;-36
2023/10/26 03:57:33;;;;;;;11.70;7.20;;;;;;;12.45;91.87;97783.73;107725;1254;71324;-36
2023/10/26 04:00:03;;;;;;;10.20;6.90;;;;;;;12.46;91.68;97787.92;107592;1254;60530;-36
2023/10/26 04:02:38;;;;;;;11.10;8.10;;;;;;;12.46;91.63;97788.86;107573;1252;60248;-36
2023/10/26 04:05:06;;;;;;;12.80;8.10;;;;;;;12.43;91.67;97791.92;107574;1257;73835;-36
2023/10/26 04:07:34;;;;;;;11.70;8.00;;;;;;;12.41;91.81;97791.17;107658;1254;66610;-37
2023/10/26 04:10:05;;;;;;;12.80;7.40;;;;;;;12.42;91.66;97788.36;107545;1254;71432;-36
2023/10/26 04:12:33;;;;;;;12.90;7.70;;;;;;;12.45;91.31;97788.94;107493;1254;61673;-36
2023/10/26 04:15:02;;;;;;;10.10;8.20;;;;;;;12.45;91.11;97792.67;107491;1254;59468;-36
2023/10/26 04:17:30;;;;;;;12.30;8.60;;;;;;;12.43;91.14;97797.98;107514;1253;72715;-36
2023/10/26 04:19:57;;;;;;;12.40;8.80;;;;;;;12.39;91.14;97796.87;107522;1253;67600;-36
2023/10/26 04:22:26;;;;;;;13.20;8.50;;;;;;;12.39;91.02;97795.26;107481;1254;70705;-36
2023/10/26 04:24:53;;;;;;;13.90;9.20;;;;;;;12.43;90.79;97798.55;107521;1257;60450;-36
2023/10/26 04:27:21;;;;;;;12.40;9.70;;;;;;;12.45;90.75;97796.24;107483;1254;60350;-37
2023/10/26 04:29:48;;;;;;;15.20;10.40;;;;;;;12.43;90.78;97795.73;107472;1254;74215;-37
2023/10/26 04:32:16;;;;;;;13.50;9.20;;;;;;;12.41;90.69;97801.66;107456;1254;68432;-36
2023/10/26 04:34:44;;;;;;;14.20;10.00;;;;;;;12.41;90.39;97806.94;107512;1254;71462;-36
2023/10/26 04:37:12;;;;;;;10.20;7.50;;;;;;;12.43;90.22;97812.28;107514;1259;61637;-36
2023/10/26 04:39:43;;;;;;;13.70;8.40;;;;;;;12.44;90.10;97815.73;107596;1253;60433;-36
2023/10/26 04:42:12;;;;;;;12.30;8.50;;;;;;;12.41;90.04;97819.59;107488;1255;72847;-36
2023/10/26 04:44:40;;;;;;;15.30;8.60;;;;;;;12.38;90.14;97820.81;107517;1254;67753;-37
2023/10/26 04:47:09;;;;;;;11.50;7.90;;;;;;;12.37;89.92;97822.45;107500;1254;72766;-37
2023/10/26 04:49:37;;;;;;;11.60;8.10;;;;;;;12.38;89.85;97825.77;107557;1254;61721;-36
2023/10/26 04:52:05;;;;;;;10.50;8.30;;;;;;;12.39;89.73;97827.77;107530;1254;59902;-36
2023/10/26 04:54:32;;;;;;;11.90;9.10;;;;;;;12.35;89.96;97832.96;107482;1254;74416;-36
2023/10/26 04:57:00;;;;;;;10.50;8.20;;;;;;;12.30;90.00;97832.32;107518;1254;67564;-35
2023/10/26 04:59:28;;;;;;;12.90;8.60;;;;;;;12.29;89.89;97831.10;107470;1254;72674;-36
2023/10/26 05:01:55;;;;;;;12.40;8.10;;;;;;;12.30;89.69;97836.27;107491;1254;60557;-36
2023/10/26 05:04:23;;;;;;;11.30;8.90;;;;;;;12.30;89.70;97835.59;107583;1254;60318;-36
2023/10/26 05:06:51;;;;;;;10.70;9.30;;;;;;;12.29;89.76;97840.02;107500;1254;73803;-37
2023/10/26 05:09:18;;;;;;;12.80;8.80;;;;;;;12.25;89.70;97845.59;107534;1254;67625;-36
2023/10/26 05:11:46;;;;;;;9.70;7.70;;;;;;;12.25;89.53;97847.83;107573;1254;72662;-36
2023/10/26 05:14:14;;;;;;;15.70;8.40;;;;;;;12.28;89.33;97848.73;107678;1252;60449;-36
2023/10/26 05:16:41;;;;;;;12.40;9.20;;;;;;;12.28;89.05;97854.48;107695;1253;60399;-36
2023/10/26 05:19:09;;;;;;;12.50;9.20;;;;;;;12.23;89.11;97859.35;107621;1257;73812;-36
2023/10/26 05:21:36;;;;;;;12.70;8.70;;;;;;;12.17;89.38;97864.46;107578;1254;66650;-37
2023/10/26 05:24:05;;;;;;;12.00;8.80;;;;;;;12.15;89.28;97865.95;107657;1254;72641;-36
2023/10/26 05:26:32;;;;;;;12.90;8.80;;;;;;;12.16;89.33;97870.76;107581;1254;60382;-36
2023/10/26 05:29:02;;;;;;;11.80;9.00;;;;;;;12.17;89.45;97871.52;107573;1252;60286;-36
2023/10/26 05:31:30;;;;;;;11.90;9.80;;;;;;;12.15;89.50;97875.34;107717;1253;73815;-36
2023/10/26 05:33:57;;;;;;;12.20;9.10;;;;;;;12.09;89.64;97877.42;107598;1254;67576;-36
2023/10/26 05:36:25;;;;;;;13.50;8.70;;;;;;;12.10;89.77;97877.89;107574;1257;72668;-36
2023/10/26 05:38:52;;;;;;;10.50;8.40;;;;;;;12.12;89.47;97879.19;107587;1254;61677;-36
2023/10/26 05:41:20;;;;;;;15.30;8.80;;;;;;;12.13;89.47;97882.67;107573;1252;60046;-36
2023/10/26 05:43:47;;;;;;;11.70;9.90;;;;;;;12.13;89.67;97881.11;107567;1252;73843;-37
2023/10/26 05:46:15;;;;;;;11.40;9.20;;;;;;;12.13;89.87;97882.98;107577;1254;67552;-36
2023/10/26 05:48:43;;;;;;;10.90;8.30;;;;;;;12.17;89.67;97884.95;107566;1254;72665;-36
2023/10/26 05:51:10;;;;;;;10.90;8.40;;;;;;;12.24;89.22;97887.67;107576;1253;60482;-36
2023/10/26 05:53:38;;;;;;;11.50;8.90;;;;;;;12.27;88.86;97886.39;107565;1254;60437;-36
2023/10/26 05:56:06;;;;;;;11.00;7.90;;;;;;;12.25;88.72;97885.41;107712;1252;72716;-36
2023/10/26 05:58:34;;;;;;;12.50;8.50;;;;;;;12.21;88.49;97887.23;107610;1254;67582;-36
2023/10/26 06:01:02;;;;;;;11.00;7.70;;;;;;;12.21;88.00;97885.83;107554;1254;70451;-36
2023/10/26 06:03:30;;;;;;;12.50;8.20;;;;;;;12.22;87.66;97883.04;107683;1254;60444;-37
2023/10/26 06:05:59;;;;;;;12.40;8.60;;;;;;;12.22;87.74;97888.00;107630;1253;60292;-36
2023/10/26 06:08:27;;;;;;;11.30;8.30;;;;;;;12.16;87.72;97886.13;107579;1253;72614;-36
2023/10/26 06:10:55;;;;;;;10.30;7.60;;;;;;;12.11;87.78;97885.16;107552;1252;67731;-36
2023/10/26 06:13:22;;;;;;;11.90;8.20;;;;;;;12.10;87.71;97883.73;107569;1253;71744;-36
2023/10/26 06:15:50;;;;;;;10.80;8.00;;;;;;;12.11;87.63;97880.51;107555;1256;61782;-36
2023/10/26 06:18:18;;;;;;;13.70;8.50;;;;;;;12.11;87.76;97880.05;107543;1252;60553;-37
2023/10/26 06:20:59;;;;;;;10.90;8.30;;;;;;;12.09;87.88;97882.57;107574;1252;73833;-35
2023/10/26 06:23:29;;;;;;;10.70;8.00;;;;;;;12.04;87.78;97881.91;107554;1257;67587;-36
2023/10/26 06:25:58;;;;;;;12.90;8.00;;;;;;;12.05;87.80;97887.18;107538;1254;71695;-36
2023/10/26 06:28:26;;;;;;;10.30;7.60;;;;;;;12.08;87.70;97887.15;107567;1253;60626;-36
2023/10/26 06:30:54;;;;;;;10.10;8.30;;;;;;;12.09;87.73;97887.22;107553;1254;60399;-36
2023/10/26 06:33:21;;;;;;;11.50;8.20;;;;;;;12.07;87.65;97886.77;107551;1253;73040;-36
2023/10/26 06:35:49;;;;;;;10.00;8.10;;;;;;;12.03;87.72;97885.58;107562;1254;67597;-37
2023/10/26 06:38:17;;;;;;;12.10;7.90;;;;;;;12.06;87.68;97888.11;107656;1252;72707;-36
2023/10/26 06:40:45;;;;;;;12.30;8.10;;;;;;;12.12;87.50;97889.27;107569;1254;61694;-36
2023/10/26 06:43:12;;;;;;;10.00;8.40;;;;;;;12.16;87.32;97892.57;107595;1252;60552;-36
2023/10/26 06:45:40;;;;;;;14.40;9.00;;;;;;;12.16;87.31;97890.46;107583;1254;72613;-36
2023/10/26 06:48:08;;;;;;;12.90;8.20;;;;;;;12.16;87.42;97889.23;107593;1254;66454;-36
2023/10/26 06:50:35;;;;;;;11.00;7.40;;;;;;;12.20;87.09;97894.31;107565;1254;72680;-36
2023/10/26 06:53:03;;;;;;;10.50;7.80;;;;;;;12.28;86.97;97899.11;107556;1253;61661;-36
2023/10/26 06:55:33;;;;;;;13.70;8.60;;;;;;;12.33;86.84;97894.64;107577;1257;60341;-36
2023/10/26 06:58:00;;;;;;;10.70;7.90;;;;;;;12.35;86.60;97897.94;107631;1252;72533;-36
2023/10/26 07:00:28;;;;;;;9.70;7.20;;;;;;;12.36;86.08;97903.67;107579;1252;66264;-36
2023/10/26 07:02:56;;;;;;;15.90;7.30;;;;;;;12.39;85.73;97906.04;107574;1254;72664;-36
2023/10/26 07:05:24;;;;;;;10.50;8.00;;;;;;;12.44;85.12;97905.84;107567;1253;61660;-37
2023/10/26 07:07:51;;;;;;;11.20;8.40;;;;;;;12.46;84.74;97903.63;107577;1253;60303;-37
2023/10/26 07:10:19;;;;;;;10.40;8.40;;;;;;;12.46;84.79;97910.01;107501;1254;73968;-37
2023/10/26 07:12:47;;;;;;;10.20;6.70;;;;;;;12.47;84.67;97908.98;107520;1253;66452;-37
2023/10/26 07:15:15;;;;;;;8.60;6.70;;;;;;;12.54;84.44;97910.91;107456;1254;72730;-37
2023/10/26 07:17:44;;;;;;;8.70;6.30;;;;;;;12.62;84.22;97914.70;107583;1254;60044;-36
2023/10/26 07:20:15;;;;;;;7.80;6.20;;;;;;;12.67;83.52;97915.27;107498;1254;60399;-36
2023/10/26 07:22:42;;;;;;;9.00;6.70;;;;;;;12.65;83.18;97919.08;107494;1254;72570;-36
2023/10/26 07:25:10;;;;;;;8.70;6.50;;;;;;;12.63;82.93;97916.86;107486;1252;67701;-37
2023/10/26 07:27:38;;;;;;;6.70;5.40;;;;;;;12.66;82.73;97912.32;107515;1254;72706;-36
2023/10/26 07:30:07;;;;;;;7.10;5.70;;;;;;;12.71;82.49;97910.47;107490;1254;61654;-36
2023/10/26 07:32:34;;;;;;;9.50;6.30;;;;;;;12.74;82.66;97912.52;107526;1254;60335;-36
2023/10/26 07:35:02;;;;;;;8.60;7.10;;;;;;;12.76;82.64;97917.01;107425;1254;73921;-37
2023/10/26 07:37:30;;;;;;;8.50;6.30;;;;;;;12.78;82.35;97914.88;107517;1254;68014;-36
2023/10/26 07:39:57;;;;;;;11.20;6.20;;;;;;;12.83;81.72;97915.52;107515;1254;71582;-36
2023/10/26 07:42:45;;;;;;;9.30;6.30;;;;;;;12.88;81.33;97911.41;107527;1254;61741;-36
2023/10/26 07:45:13;;;;;;;9.20;6.40;;;;;;;12.91;80.83;97916.89;107504;1254;60382;-37
2023/10/26 07:47:40;;;;;;;8.50;6.10;;;;;;;12.89;80.81;97913.10;107493;1259;73995;-36
2023/10/26 07:50:08;;;;;;;7.60;6.80;;;;;;;12.91;80.94;97917.98;107494;1254;67719;-36
2023/10/26 07:52:36;;;;;;;8.80;6.20;;;;;;;12.97;80.24;97916.64;107471;1254;71404;-36
2023/10/26 07:55:04;;;;;;;7.50;6.20;;;;;;;13.04;79.95;97923.25;107522;1254;60425;-36
2023/10/26 07:57:31;;;;;;;8.70;6.40;;;;;;;13.09;79.75;97926.12;107524;1254;60368;-36
2023/10/26 07:59:59;;;;;;;7.40;6.60;;;;;;;13.13;79.60;97926.88;107531;1254;72616;-36
2023/10/26 08:02:39;;;;;;;8.60;6.50;;;;;;;13.18;79.97;97927.19;107479;1254;66629;-35
2023/10/26 08:05:09;;;;;;;4.80;4.00;;;;;;;13.29;78.54;97934.26;107479;1254;72725;-36
2023/10/26 08:07:37;;;;;;;9.10;6.20;;;;;;;13.38;77.36;97935.05;107559;1254;60483;-36
2023/10/26 08:10:05;;;;;;;10.60;6.50;;;;;;;13.41;76.09;97932.90;107496;1253;60393;-36
2023/10/26 08:12:33;;;;;;;8.10;6.50;;;;;;;13.42;76.39;97935.21;107584;1254;73842;-37
2023/10/26 08:15:02;;;;;;;8.90;6.30;;;;;;;13.45;76.94;97933.77;107495;1254;67722;-36
2023/10/26 08:17:49;;;;;;;7.30;5.30;;;;;;;13.53;76.38;97944.55;107523;1254;72721;-36
2023/10/26 08:20:17;;;;;;;9.50;5.80;;;;;;;13.61;75.90;97947.91;107491;1254;60524;-37
2023/10/26 08:22:45;;;;;;;9.20;6.40;;;;;;;13.64;75.50;97949.28;107501;1253;60340;-37
2023/10/26 08:25:12;;;;;;;7.70;6.50;;;;;;;13.63;75.47;97953.87;107510;1258;73010;-36
2023/10/26 08:27:44;;;;;;;9.00;5.30;;;;;;;13.57;75.20;97951.70;107498;1254;66356;-36
2023/10/26 08:30:12;;;;;;;9.70;5.60;;;;;;;13.60;74.59;97952.61;107467;1254;71444;-36
2023/10/26 08:32:39;;;;;;;8.30;5.40;;;;;;;13.62;74.69;97951.02;107521;1254;60371;-36
2023/10/26 08:35:07;;;;;;;9.70;6.60;;;;;;;13.61;74.71;97955.46;107475;1254;60077;-36
2023/10/26 08:37:35;;;;;;;7.60;5.90;;;;;;;13.59;75.00;97958.30;107496;1254;73840;-36
2023/10/26 08:40:04;;;;;;;9.00;6.60;;;;;;;13.61;74.67;97963.16;107517;1254;67579;-37
2023/10/26 08:42:32;;;;;;;7.70;6.00;;;;;;;13.64;74.38;97968.02;107493;1254;71481;-37
2023/10/26 08:44:59;;;;;;;6.90;5.90;;;;;;;13.73;74.32;97962.98;107393;1254;60428;-36
2023/10/26 08:47:28;;;;;;;7.30;6.00;;;;;;;13.80;73.60;97964.03;107496;1258;60717;-36
2023/10/26 08:49:57;;;;;;;7.10;5.80;;;;;;;13.82;73.33;97954.64;107382;1254;73890;-36
2023/10/26 08:52:42;;;;;;;10.30;6.00;;;;;;;13.84;72.85;97953.54;107478;1254;68146;-36
2023/10/26 08:55:09;;;;;;;6.80;5.90;;;;;;;13.83;72.48;97958.14;107477;1254;72651;-36
2023/10/26 08:57:48;;;;;;;7.30;5.80;;;;;;;13.84;71.75;97954.53;107350;1254;61827;-36
2023/10/26 09:00:16;;;;;;;7.60;5.80;;;;;;;13.86;71.49;97961.34;107513;1254;60538;-36
2023/10/26 09:02:45;;;;;;;9.60;6.40;;;;;;;13.85;71.24;97968.14;107498;1254;73928;-35
2023/10/26 09:05:13;;;;;;;9.20;6.40;;;;;;;13.79;71.10;97962.41;107495;1254;68005;-36
2023/10/26 09:07:41;;;;;;;8.20;5.90;;;;;;;13.88;71.05;97968.40;107496;1254;71462;-36
2023/10/26 09:10:10;;;;;;;7.50;5.90;;;;;;;13.96;70.55;97968.66;107476;1254;61826;-36
2023/10/26 09:12:37;;;;;;;8.90;5.10;;;;;;;14.06;69.50;97970.11;107546;1257;60354;-36
2023/10/26 09:15:06;;;;;;;8.80;5.90;;;;;;;14.11;68.68;97973.46;107501;1254;72477;-36
2023/10/26 09:17:34;;;;;;;6.60;5.80;;;;;;;14.08;68.58;97982.39;107536;1254;68144;-36
2023/10/26 09:20:21;;;;;;;7.40;5.50;;;;;;;14.04;68.92;97981.98;107483;1258;72716;-37
2023/10/26 09:22:49;;;;;;;6.20;5.50;;;;;;;14.01;68.63;97982.98;107351;1254;218208;-37
2023/10/26 09:27:17;;;;;;;9.40;6.20;;;;;;;14.05;69.50;97975.90;104194;1292;600310;-35
2023/10/26 09:29:47;;;;;;;8.10;6.20;;;;;;;14.08;69.73;97975.23;106678;1269;59312;-37
2023/10/26 09:32:14;;;;;;;;;;;;;;;14.11;69.24;97974.23;107065;1261;60103;-36
2023/10/26 09:34:45;;;;;;;9.00;5.70;;;;;;;14.14;69.16;97968.89;107110;1257;71044;-36
2023/10/26 09:37:13;;;;;;;8.20;5.70;;;;;;;14.21;69.12;97964.02;107055;1258;67906;-37
2023/10/26 09:39:41;;;;;;;7.80;5.50;;;;;;;14.34;68.24;97959.97;106992;1256;253797;-36
2023/10/26 09:42:09;;;;;;;11.10;6.10;;;;;;;14.43;67.83;97957.17;107293;1257;60181;-36
2023/10/26 09:44:39;;;;;;;6.50;5.70;;;;;;;14.52;66.92;97958.02;107304;1260;60127;-36
2023/10/26 09:47:07;;;;;;;8.60;5.40;;;;;;;14.59;65.75;97956.16;107279;1256;72323;-37
2023/10/26 09:49:34;;;;;;;6.80;5.90;;;;;;;14.64;65.68;97947.12;107131;1256;67307;-36
2023/10/26 09:52:03;;;;;;;8.90;6.40;;;;;;;14.69;66.37;97941.77;107254;1260;72788;-35
2023/10/26 09:54:36;;;;;;;6.10;5.00;;;;;;;14.75;66.36;97945.79;107253;1260;61749;-36
2023/10/26 09:57:10;;;;;;;6.20;5.50;;;;;;;14.83;65.60;97943.45;107313;1255;60567;-36
2023/10/26 09:59:38;;;;;;;8.10;5.70;;;;;;;14.85;65.21;97942.39;107264;1256;70869;-36
2023/10/26 10:02:13;;;;;;;8.80;5.80;;;;;;;14.83;65.64;97942.73;107277;1259;68058;-36
2023/10/26 10:04:41;;;;;;;6.20;5.60;;;;;;;14.82;65.42;97940.27;107308;1260;72683;-36
2023/10/26 10:07:09;;;;;;;6.70;5.80;;;;;;;14.79;65.05;97943.84;107295;1259;60211;-36
2023/10/26 10:10:16;;;;;;;8.60;6.40;;;;;;;14.74;65.52;97949.39;107101;1259;60144;-37
2023/10/26 10:12:45;;;;;;;11.50;6.50;;;;;;;14.74;65.44;97951.55;106879;1263;73128;-37
2023/10/26 10:15:13;;;;;;;6.60;5.30;;;;;;;14.82;65.27;97948.84;107013;1263;68048;-36
2023/10/26 10:18:02;;;;;;;8.20;6.00;;;;;;;14.89;65.17;97948.61;107428;1256;72109;-36
2023/10/26 10:20:31;;;;;;;7.80;5.50;;;;;;;14.96;64.77;97941.77;107662;1256;59679;-36
2023/10/26 10:23:00;;;;;;;9.80;5.80;;;;;;;15.06;64.73;97940.84;107618;1253;60120;-36
2023/10/26 10:25:50;;;;;;;6.70;5.30;;;;;;;15.13;64.26;97936.48;107594;1251;73232;-37
2023/10/26 10:28:18;;;;;;;7.00;5.70;;;;;;;15.14;63.50;97934.41;107542;1251;68069;-37
2023/10/26 10:30:55;;;;;;;6.90;5.20;;;;;;;15.11;63.83;97934.48;107646;1254;70438;-37
2023/10/26 10:33:25;;;;;;;7.70;5.00;;;;;;;15.14;63.57;97930.35;107717;1253;60510;-36
2023/10/26 10:36:02;;;;;;;5.70;5.10;;;;;;;15.15;63.36;97927.37;107658;1251;60453;-37
2023/10/26 10:38:31;;;;;;;6.40;5.40;;;;;;;15.13;63.50;97926.89;107569;1256;71425;-37
2023/10/26 10:40:58;;;;;;;5.70;5.10;;;;;;;15.13;63.63;97924.08;107684;1256;68422;-37
2023/10/26 10:43:45;;;;;;;6.90;5.80;;;;;;;15.13;63.65;97923.20;107634;1253;71464;-37
2023/10/26 10:46:18;;;;;;;6.90;5.60;;;;;;;15.12;63.72;97923.39;107603;1253;60355;-37
2023/10/26 10:49:00;;;;;;;6.10;5.30;;;;;;;15.11;63.59;97935.09;107666;1256;59174;-37
2023/10/26 10:51:41;;;;;;;8.80;5.70;;;;;;;15.08;63.73;97943.84;107653;1256;73172;-37
2023/10/26 10:54:10;;;;;;;7.50;4.60;;;;;;;15.09;64.06;97950.84;107599;1254;66947;-36
2023/10/26 10:56:58;;;;;;;5.70;5.10;;;;;;;15.09;63.82;97951.70;107619;1254;72737;-37
2023/10/26 10:59:26;;;;;;;7.00;5.80;;;;;;;15.06;63.74;97951.06;107638;1254;59601;-36
2023/10/26 11:02:11;;;;;;;7.00;5.90;;;;;;;15.02;64.46;97948.33;107725;1254;59497;-37
2023/10/26 11:04:55;;;;;;;8.20;5.80;;;;;;;15.02;64.88;97941.94;107694;1253;73205;-37
2023/10/26 11:07:39;;;;;;;7.40;5.70;;;;;;;15.02;64.88;97942.55;107663;1257;66510;-37
2023/10/26 11:10:08;;;;;;;7.90;5.50;;;;;;;15.00;64.89;97942.91;107626;1257;70817;-36
2023/10/26 11:12:35;;;;;;;7.90;5.00;;;;;;;15.03;65.19;97942.63;107601;1257;61736;-37
2023/10/26 11:15:04;;;;;;;6.30;5.10;;;;;;;15.05;65.16;97941.10;107612;1251;60092;-37
2023/10/26 11:17:31;;;;;;;6.20;4.90;;;;;;;15.01;64.39;97940.93;107696;1254;73166;-37
2023/10/26 11:19:59;;;;;;;6.60;5.20;;;;;;;15.00;64.48;97939.66;107578;1254;67914;-37
2023/10/26 11:22:27;;;;;;;7.50;5.40;;;;;;;15.00;64.43;97940.82;107614;1254;71774;-37
2023/10/26 11:24:55;;;;;;;5.80;5.20;;;;;;;15.00;64.97;97941.13;107616;1255;60165;-37
2023/10/26 11:27:23;;;;;;;6.90;5.70;;;;;;;15.00;65.32;97936.83;107639;1251;60111;-37
2023/10/26 11:30:04;;;;;;;6.30;5.10;;;;;;;15.01;65.20;97935.02;107616;1254;73116;-37
2023/10/26 11:32:34;;;;;;;6.10;5.00;;;;;;;15.04;64.94;97934.96;107635;1257;66428;-37